A- A+ FrançaisEnglishEspañol中国

Services sur Internet Soldes sur Internet Des idées de cadeaux Météo Météo aéro

La météo à : Autours de vous Tarbes-Lourdes-PyrénéesFontenay-Le-ComteVitry-En-Artois Bordeaux-Leognan-Saucats

La météo aéronautique pour les pilotes, la préparation du vol avec les METAR (METeorological Aerodrome Report, message d'observation des conditions météorologiques pour l'aviation) et Les TAF (Terminal Aerodrome Forecast : message de prévision à court terme des conditions météorologiques pour l'aviation). Et les autres ressources comme les VAC (Visual Approch Chart) et les NOTAM (Notice To Airman) pour préprer les vols.

Aéroport Dease Lake (Canada) / OACI CYDL/ IATA YDL

L'altitude de l'aéroport Dease Lake est de 792 m = 2598 ft. Il est situé à proximité de Dease Lake (Canada). La météo générale à 5 jours est disponible pour Dease Lake situé à 3 km.

METAR de l'aéroport Dease Lake - CYDL

CYDL 080236Z AUTO 21005KT 9SM -SN OVC041 M10/M11 A2985 RMK SLP155

Décodage du METAR de l'aéroport Dease Lake (CA)

METAR émis par CYDL le dimanche 8 décembre 2019 à 02:36 heure TU. C'est un METAR généré automatiquement, il y a 9 minutes.

La visibilité est de 14.5 km = 9 sm.

La température est de -10°C = 14 °F et le point rosée est de -11°C = 12 °F . Ce qui correspond à 92% d'humidité relative.

Le QNH est de 1011 hPa = 29.85 inHg

Vent de 5 kt = 9 km/h, orienté à 210°.

Nuages : Couverture nuageuse soudée à 4100 ft = 1250 mètres.

-SN

RMK SLP155

TAF de l'aéroport Dease Lake - CYDL

CYDL 072338Z 0800/0803 21005KT P6SM SCT012 BKN040 TEMPO 0800/0803 1SM -SN BKN012 OVC020 RMK FCST BASED ON AUTO OBS. NXT FCST WILL BE ISSUED AT 081645Z

CYDL 072338Z 0800/0803 21005KT P6SM nuages épars à 012 couverture nuageuse fragmentée à 040 temporairement 0800/0803 1SM faible SN couverture nuageuse fragmentée à 012 couverture nuageuse soudée à 020 remarques trombe ST BASED ON AUTO OBS. NXT trombe ST WILL BE ISSUED AT 081645Z

Aéroport à proximité de Dease Lake

Météo générale à 5 jours à Dease Lake (3 km)Aéroport Watson Lake (201 km)Aéroport Atlin (245 km)Aéroport Teslin (248 km)Aéroport Johnson Peterburg (250 km)Aéroport Wrangell (257 km)Aéroport Juneau (265 km)

Vue aérienne de l'aéroport Dease Lake

NOTAM de l'aéroport Dease Lake

Les NOTAM sont fournis sans aucune garantie de leur actualité. Le pilote est le seul responsable de la vérification de sa validité avant de l'utiliser opérationnellement pour préparer un vol ou l'utiliser lors de sa navigation.

Pas de NOTAM

Sources des données